createdAt,value
2017-10-15T00:01:13.939Z,10.47
2017-10-15T00:03:40.269Z,9.20
2017-10-15T00:06:06.610Z,8.90
2017-10-15T00:08:32.934Z,9.73
2017-10-15T00:10:59.251Z,10.03
2017-10-15T00:13:25.563Z,8.83
2017-10-15T00:15:51.875Z,8.30
2017-10-15T00:18:18.927Z,10.37
2017-10-15T00:20:47.056Z,10.30
2017-10-15T00:23:13.380Z,12.40
2017-10-15T00:25:39.708Z,11.23
2017-10-15T00:28:07.217Z,10.00
2017-10-15T00:30:34.926Z,9.43
2017-10-15T00:33:01.244Z,11.17
2017-10-15T00:35:27.566Z,10.93
2017-10-15T00:37:53.882Z,8.70
2017-10-15T00:40:21.189Z,7.40
2017-10-15T00:42:47.606Z,8.15
2017-10-15T00:45:13.970Z,7.25
2017-10-15T00:47:40.295Z,7.77
2017-10-15T00:50:06.666Z,7.37
2017-10-15T00:52:32.986Z,7.90
2017-10-15T00:54:59.355Z,9.50
2017-10-15T00:57:25.737Z,8.73
2017-10-15T00:59:52.847Z,8.33
2017-10-15T01:02:19.212Z,6.77
2017-10-15T01:04:46.278Z,7.12
2017-10-15T01:07:12.631Z,7.37
2017-10-15T01:09:39.021Z,7.72
2017-10-15T01:12:06.103Z,7.57
2017-10-15T01:14:32.563Z,7.53
2017-10-15T01:16:58.891Z,6.87
2017-10-15T01:19:26.242Z,7.70
2017-10-15T01:21:52.583Z,7.87
2017-10-15T01:24:18.943Z,8.13
2017-10-15T01:26:46.051Z,8.30
2017-10-15T01:29:12.407Z,8.33
2017-10-15T01:31:38.802Z,8.60
2017-10-15T01:34:05.142Z,7.50
2017-10-15T01:36:31.507Z,5.80
2017-10-15T01:38:57.885Z,6.57
2017-10-15T01:41:24.286Z,6.05
2017-10-15T01:43:51.383Z,6.23
2017-10-15T01:46:18.751Z,5.57
2017-10-15T01:48:45.096Z,6.33
2017-10-15T01:51:11.446Z,6.40
2017-10-15T01:53:38.535Z,5.97
2017-10-15T01:56:04.895Z,5.10
2017-10-15T01:58:31.242Z,6.00
2017-10-15T02:00:57.603Z,6.00
2017-10-15T02:03:23.931Z,6.37
2017-10-15T02:05:51.019Z,6.03
2017-10-15T02:08:17.346Z,6.03
2017-10-15T02:10:44.014Z,6.20
2017-10-15T02:13:10.351Z,6.27
2017-10-15T02:15:36.675Z,5.40
2017-10-15T02:18:03.098Z,5.27
2017-10-15T02:20:29.489Z,5.22
2017-10-15T02:22:56.578Z,5.22
2017-10-15T02:25:23.719Z,5.62
2017-10-15T02:27:50.030Z,4.50
2017-10-15T02:30:16.343Z,4.73
2017-10-15T02:32:42.666Z,5.03
2017-10-15T02:35:09.022Z,4.83
2017-10-15T02:37:35.356Z,5.53
2017-10-15T02:40:01.698Z,5.00
2017-10-15T02:42:28.014Z,4.73
2017-10-15T02:44:54.379Z,4.70
2017-10-15T02:47:20.758Z,5.03
2017-10-15T02:49:47.118Z,4.90
2017-10-15T02:52:13.475Z,4.35
2017-10-15T02:54:39.794Z,4.47
2017-10-15T02:57:06.188Z,4.73
2017-10-15T02:59:32.507Z,4.47
2017-10-15T03:01:58.822Z,4.15
2017-10-15T03:04:25.883Z,4.87
2017-10-15T03:06:52.219Z,4.55
2017-10-15T03:09:18.535Z,4.35
2017-10-15T03:11:44.875Z,3.65
2017-10-15T03:14:11.203Z,4.17
2017-10-15T03:16:37.538Z,4.13
2017-10-15T03:19:03.851Z,4.50
2017-10-15T03:21:30.159Z,4.12
2017-10-15T03:23:56.483Z,4.30
2017-10-15T03:26:23.799Z,4.13
2017-10-15T03:28:50.214Z,4.30
2017-10-15T03:31:16.519Z,4.40
2017-10-15T03:33:43.570Z,3.70
2017-10-15T03:36:09.886Z,3.90
2017-10-15T03:38:36.941Z,4.62
2017-10-15T03:41:04.003Z,4.78
2017-10-15T03:43:30.338Z,3.95
2017-10-15T03:45:56.671Z,4.18
2017-10-15T03:48:23.022Z,4.55
2017-10-15T03:50:49.390Z,5.20
2017-10-15T03:53:15.703Z,5.37
2017-10-15T03:55:42.036Z,4.95
2017-10-15T03:58:08.394Z,5.22
2017-10-15T04:00:35.458Z,4.65
2017-10-15T04:03:01.785Z,4.65
2017-10-15T04:05:28.136Z,5.03
2017-10-15T04:07:54.479Z,4.37
2017-10-15T04:10:20.782Z,4.35
2017-10-15T04:12:47.094Z,4.12
2017-10-15T04:15:14.195Z,3.85
2017-10-15T04:17:40.571Z,4.50
2017-10-15T04:20:07.669Z,4.85
2017-10-15T04:22:34.018Z,4.10
2017-10-15T04:25:00.368Z,4.43
2017-10-15T04:27:26.706Z,4.47
2017-10-15T04:29:53.753Z,4.80
2017-10-15T04:32:20.797Z,4.25
2017-10-15T04:34:47.857Z,3.25
2017-10-15T04:37:14.907Z,4.20
2017-10-15T04:39:41.975Z,3.40
2017-10-15T04:42:09.010Z,4.20
2017-10-15T04:44:35.350Z,3.17
2017-10-15T04:47:01.676Z,3.58
2017-10-15T04:49:27.999Z,3.45
2017-10-15T04:51:54.318Z,3.53
2017-10-15T04:54:21.371Z,4.00
2017-10-15T04:56:47.676Z,3.67
2017-10-15T04:59:14.021Z,4.22
2017-10-15T05:01:41.082Z,3.55
2017-10-15T05:04:07.439Z,3.72
2017-10-15T05:06:33.765Z,3.60
2017-10-15T05:09:00.819Z,3.33
2017-10-15T05:11:27.138Z,3.78
2017-10-15T05:13:53.467Z,3.62
2017-10-15T05:16:20.763Z,3.55
2017-10-15T05:18:47.115Z,3.87
2017-10-15T05:21:14.199Z,4.45
2017-10-15T05:23:41.554Z,4.03
2017-10-15T05:26:08.660Z,4.10
2017-10-15T05:28:35.716Z,3.25
2017-10-15T05:31:02.774Z,4.10
2017-10-15T05:33:29.831Z,3.40
2017-10-15T05:35:56.166Z,3.28
2017-10-15T05:38:22.491Z,2.97
2017-10-15T05:40:48.814Z,3.60
2017-10-15T05:43:15.171Z,3.42
2017-10-15T05:45:41.486Z,4.15
2017-10-15T05:48:07.852Z,3.08
2017-10-15T05:50:34.274Z,2.92
2017-10-15T05:53:00.607Z,3.50
2017-10-15T05:55:26.950Z,3.10
2017-10-15T05:57:54.142Z,3.62
2017-10-15T06:00:21.223Z,3.05
2017-10-15T06:02:47.590Z,3.20
2017-10-15T06:05:13.958Z,3.15
2017-10-15T06:07:40.304Z,2.87
2017-10-15T06:10:06.696Z,2.87
2017-10-15T06:12:33.837Z,3.30
2017-10-15T06:15:00.179Z,2.80
2017-10-15T06:17:27.277Z,3.20
2017-10-15T06:19:53.629Z,3.10
2017-10-15T06:22:19.979Z,2.30
2017-10-15T06:24:46.344Z,2.83
2017-10-15T06:27:12.690Z,2.75
2017-10-15T06:29:39.046Z,3.58
2017-10-15T06:32:05.428Z,3.03
2017-10-15T06:34:31.762Z,2.20
2017-10-15T06:36:58.091Z,2.25
2017-10-15T06:39:25.424Z,2.80
2017-10-15T06:41:52.522Z,2.50
2017-10-15T06:44:18.859Z,2.20
2017-10-15T06:46:45.174Z,2.47
2017-10-15T06:49:11.511Z,3.20
2017-10-15T06:51:37.891Z,2.43
2017-10-15T06:54:04.215Z,2.60
2017-10-15T06:56:30.566Z,2.77
2017-10-15T06:58:58.651Z,2.87
2017-10-15T07:01:25.001Z,3.00
2017-10-15T07:03:51.390Z,2.90
2017-10-15T07:06:18.459Z,3.40
2017-10-15T07:08:44.815Z,3.43
2017-10-15T07:11:11.917Z,3.20
2017-10-15T07:13:38.995Z,3.50
2017-10-15T07:16:05.308Z,3.60
2017-10-15T07:18:32.365Z,3.50
2017-10-15T07:20:58.727Z,4.13
2017-10-15T07:23:25.050Z,3.60
2017-10-15T07:25:52.404Z,3.30
2017-10-15T07:28:18.734Z,3.87
2017-10-15T07:30:45.110Z,3.23
2017-10-15T07:33:12.370Z,3.20
2017-10-15T07:35:40.431Z,3.50
2017-10-15T07:38:06.755Z,3.50
2017-10-15T07:40:33.131Z,3.30
2017-10-15T07:42:59.450Z,3.20
2017-10-15T07:45:25.763Z,2.83
2017-10-15T07:47:52.810Z,3.37
2017-10-15T07:50:20.884Z,2.73
2017-10-15T07:52:47.993Z,2.83
2017-10-15T07:55:14.308Z,2.93
2017-10-15T07:57:40.687Z,3.03
2017-10-15T08:00:07.747Z,3.00
2017-10-15T08:02:34.808Z,2.97
2017-10-15T08:05:02.108Z,3.40
2017-10-15T08:07:28.424Z,2.87
2017-10-15T08:09:54.754Z,2.70
2017-10-15T08:12:21.093Z,2.90
2017-10-15T08:14:48.428Z,3.17
2017-10-15T08:17:14.747Z,3.13
2017-10-15T08:19:41.092Z,2.60
2017-10-15T08:22:07.426Z,2.50
2017-10-15T08:24:33.738Z,2.70
2017-10-15T08:27:00.064Z,2.60
2017-10-15T08:29:26.386Z,2.50
2017-10-15T08:31:52.695Z,2.77
2017-10-15T08:34:19.759Z,2.57
2017-10-15T08:36:46.087Z,3.00
2017-10-15T08:39:12.434Z,2.23
2017-10-15T08:41:38.773Z,2.30
2017-10-15T08:44:05.126Z,2.50
2017-10-15T08:46:31.442Z,2.30
2017-10-15T08:48:57.766Z,2.57
2017-10-15T08:51:24.100Z,2.40
2017-10-15T08:53:50.433Z,2.40
2017-10-15T08:56:16.776Z,2.33
2017-10-15T08:58:44.050Z,1.80
2017-10-15T09:01:10.398Z,1.97
2017-10-15T09:03:37.496Z,2.00
2017-10-15T09:06:04.699Z,2.27
2017-10-15T09:08:31.806Z,2.20
2017-10-15T09:10:59.126Z,2.50
2017-10-15T09:13:26.471Z,2.53
2017-10-15T09:15:53.682Z,2.00
2017-10-15T09:20:51.653Z,2.27
2017-10-15T09:23:18.032Z,1.80
2017-10-15T09:25:44.350Z,2.40
2017-10-15T09:28:11.423Z,2.27
2017-10-15T09:30:41.393Z,2.67
2017-10-15T09:33:09.255Z,2.33
2017-10-15T09:35:36.202Z,1.80
2017-10-15T09:38:03.332Z,1.70
2017-10-15T09:40:29.658Z,2.17
2017-10-15T09:42:55.987Z,1.63
2017-10-15T09:45:22.290Z,1.67
2017-10-15T09:47:48.614Z,1.60
2017-10-15T09:50:14.916Z,1.70
2017-10-15T09:52:41.975Z,1.50
2017-10-15T09:55:09.032Z,1.93
2017-10-15T09:57:35.386Z,1.60
2017-10-15T10:00:02.726Z,1.47
2017-10-15T10:02:29.076Z,1.60
2017-10-15T10:04:56.413Z,1.83
2017-10-15T10:07:22.726Z,1.57
2017-10-15T10:09:49.796Z,1.67
2017-10-15T10:12:16.159Z,1.57
2017-10-15T10:14:42.471Z,1.60
2017-10-15T10:17:08.788Z,1.83
2017-10-15T10:19:35.098Z,1.80
2017-10-15T10:22:01.438Z,1.67
2017-10-15T10:24:27.766Z,1.77
2017-10-15T10:26:54.108Z,2.40
2017-10-15T10:29:20.461Z,1.70
2017-10-15T10:31:46.776Z,1.60
2017-10-15T10:34:13.126Z,1.40
2017-10-15T10:36:39.463Z,1.77
2017-10-15T10:39:05.779Z,1.50
2017-10-15T10:41:32.112Z,1.53
2017-10-15T10:43:58.428Z,1.50
2017-10-15T10:46:24.762Z,1.60
2017-10-15T10:48:51.075Z,1.90
2017-10-15T10:51:17.419Z,1.60
2017-10-15T10:53:43.742Z,1.77
2017-10-15T10:56:10.050Z,1.63
2017-10-15T10:58:36.419Z,1.53
2017-10-15T11:01:02.743Z,1.73
2017-10-15T11:03:29.064Z,2.03
2017-10-15T11:05:57.139Z,2.03
2017-10-15T11:08:24.206Z,1.83
2017-10-15T11:10:50.523Z,1.90
2017-10-15T11:13:17.014Z,1.77
2017-10-15T11:15:45.086Z,1.87
2017-10-15T11:18:12.178Z,1.87
2017-10-15T11:20:38.530Z,1.87
2017-10-15T11:23:04.951Z,1.70
2017-10-15T11:25:31.327Z,1.70
2017-10-15T11:27:58.419Z,1.80
2017-10-15T11:30:24.752Z,2.33
2017-10-15T11:32:51.075Z,1.30
2017-10-15T11:35:17.403Z,1.83
2017-10-15T11:37:43.747Z,1.87
2017-10-15T11:40:10.061Z,1.87
2017-10-15T11:42:36.379Z,1.90
2017-10-15T11:45:02.710Z,2.10
2017-10-15T11:47:30.049Z,1.87
2017-10-15T11:49:56.373Z,2.30
2017-10-15T11:52:22.709Z,1.80
2017-10-15T11:54:49.046Z,1.77
2017-10-15T11:57:15.391Z,1.90
2017-10-15T11:59:42.635Z,2.10
2017-10-15T12:02:08.964Z,1.90
2017-10-15T12:04:35.410Z,1.77
2017-10-15T12:07:02.467Z,1.73
2017-10-15T12:09:29.810Z,1.70
2017-10-15T12:11:57.175Z,1.70
2017-10-15T12:14:23.499Z,1.80
2017-10-15T12:16:49.827Z,1.30
2017-10-15T12:19:16.158Z,1.40
2017-10-15T12:21:42.480Z,1.70
2017-10-15T12:24:08.799Z,1.70
2017-10-15T12:26:35.117Z,1.87
2017-10-15T12:29:01.447Z,1.40
2017-10-15T12:31:27.770Z,1.63
2017-10-15T12:33:54.834Z,1.47
2017-10-15T12:36:21.197Z,1.20
2017-10-15T12:38:47.562Z,1.07
2017-10-15T12:41:14.652Z,1.17
2017-10-15T12:43:40.992Z,1.17
2017-10-15T12:46:07.316Z,1.70
2017-10-15T12:48:33.966Z,1.20
2017-10-15T12:51:00.279Z,1.90
2017-10-15T12:53:26.591Z,1.50
2017-10-15T12:55:53.919Z,1.33
2017-10-15T12:58:20.255Z,1.57
2017-10-15T13:00:47.322Z,1.27
2017-10-15T13:03:13.696Z,1.50
2017-10-15T13:05:40.085Z,1.50
2017-10-15T13:08:06.442Z,1.30
2017-10-15T13:10:32.778Z,1.20
2017-10-15T13:12:59.082Z,1.43
2017-10-15T13:15:25.414Z,1.30
2017-10-15T13:17:51.734Z,1.40
2017-10-15T13:20:18.085Z,1.40
2017-10-15T13:22:44.450Z,1.33
2017-10-15T13:25:10.845Z,1.20
2017-10-15T13:27:37.221Z,1.30
2017-10-15T13:30:04.550Z,1.20
2017-10-15T13:32:30.886Z,1.10
2017-10-15T13:34:57.202Z,1.30
2017-10-15T13:37:23.540Z,1.40
2017-10-15T13:39:49.956Z,1.97
2017-10-15T13:42:16.292Z,1.80
2017-10-15T13:44:42.650Z,1.50
2017-10-15T13:47:08.958Z,1.83
2017-10-15T13:49:35.272Z,1.80
2017-10-15T13:52:01.586Z,1.90
2017-10-15T13:54:27.898Z,1.77
2017-10-15T13:56:54.947Z,1.70
2017-10-15T13:59:22.034Z,1.70
2017-10-15T14:01:49.121Z,1.50
2017-10-15T14:04:16.184Z,1.70
2017-10-15T14:06:43.319Z,2.10
2017-10-15T14:09:09.647Z,1.97
2017-10-15T14:11:35.984Z,1.47
2017-10-15T14:14:02.302Z,1.40
2017-10-15T14:16:28.623Z,1.83
2017-10-15T14:18:54.930Z,2.20
2017-10-15T14:21:21.244Z,2.10
2017-10-15T14:23:47.575Z,2.20
2017-10-15T14:26:13.897Z,1.77
2017-10-15T14:28:40.240Z,2.43
2017-10-15T14:31:06.551Z,1.80
2017-10-15T14:33:32.934Z,1.80
2017-10-15T14:35:59.295Z,2.17
2017-10-15T14:38:26.548Z,2.37
2017-10-15T14:40:54.678Z,2.10
2017-10-15T14:43:21.027Z,1.67
2017-10-15T14:45:47.387Z,2.00
2017-10-15T14:48:14.470Z,1.73
2017-10-15T14:50:40.805Z,2.00
2017-10-15T14:53:07.117Z,2.07
2017-10-15T14:55:33.527Z,2.10
2017-10-15T14:58:04.033Z,2.07
2017-10-15T15:00:30.371Z,1.93
2017-10-15T15:02:57.430Z,1.80
2017-10-15T15:05:24.490Z,1.60
2017-10-15T15:07:50.823Z,2.20
2017-10-15T15:10:17.172Z,2.33
2017-10-15T15:12:43.489Z,2.00
2017-10-15T15:15:09.807Z,2.20
2017-10-15T15:17:36.879Z,1.77
2017-10-15T15:20:03.213Z,1.93
2017-10-15T15:22:29.582Z,1.60
2017-10-15T15:24:57.490Z,2.00
2017-10-15T15:27:24.897Z,1.83
2017-10-15T15:29:51.526Z,1.90
2017-10-15T15:32:23.162Z,1.80
2017-10-15T15:34:49.569Z,1.87
2017-10-15T15:37:15.890Z,1.97
2017-10-15T15:39:42.944Z,2.10
2017-10-15T15:42:09.263Z,2.40
2017-10-15T15:44:36.334Z,2.40
2017-10-15T15:47:02.694Z,1.80
2017-10-15T15:49:29.027Z,2.07
2017-10-15T15:51:55.363Z,2.07
2017-10-15T15:54:21.747Z,2.07
2017-10-15T15:56:48.256Z,2.30
2017-10-15T15:59:15.331Z,2.27
2017-10-15T16:01:41.662Z,2.10
2017-10-15T16:04:08.021Z,2.00
2017-10-15T16:06:34.437Z,2.53
2017-10-15T16:09:00.816Z,2.80
2017-10-15T16:11:27.147Z,2.60
2017-10-15T16:13:53.499Z,2.20
2017-10-15T16:16:21.580Z,2.33
2017-10-15T16:18:47.903Z,2.13
2017-10-15T16:21:14.963Z,2.20
2017-10-15T16:23:41.282Z,2.70
2017-10-15T16:26:08.370Z,2.30
2017-10-15T16:28:34.733Z,2.37
2017-10-15T16:31:01.183Z,2.70
2017-10-15T16:33:28.630Z,2.90
2017-10-15T16:35:55.695Z,2.37
2017-10-15T16:38:23.810Z,2.20
2017-10-15T16:40:50.167Z,2.70
2017-10-15T16:43:16.495Z,2.67
2017-10-15T16:45:42.815Z,2.20
2017-10-15T16:48:09.142Z,2.60
2017-10-15T16:50:35.463Z,2.77
2017-10-15T16:53:02.788Z,2.63
2017-10-15T16:55:35.218Z,2.70
2017-10-15T16:58:01.546Z,2.23
2017-10-15T17:00:27.907Z,2.50
2017-10-15T17:02:54.260Z,2.50
2017-10-15T17:05:20.598Z,21.50
2017-10-15T17:07:47.981Z,29.57
2017-10-15T17:10:14.392Z,4.60
2017-10-15T17:12:40.764Z,3.63
2017-10-15T17:15:08.086Z,2.67
2017-10-15T17:17:35.447Z,2.97
2017-10-15T17:20:01.802Z,2.43
2017-10-15T17:22:28.155Z,3.17
2017-10-15T17:24:54.485Z,6.70
2017-10-15T17:27:20.848Z,4.57
2017-10-15T17:29:47.198Z,2.60
2017-10-15T17:32:13.522Z,2.30
2017-10-15T17:34:39.905Z,2.57
2017-10-15T17:37:07.034Z,3.90
2017-10-15T17:39:33.359Z,2.60
2017-10-15T17:41:59.753Z,3.13
2017-10-15T17:44:26.084Z,3.17
2017-10-15T17:46:52.739Z,4.37
2017-10-15T17:49:19.235Z,2.80
2017-10-15T17:51:45.559Z,2.40
2017-10-15T17:54:11.863Z,2.93
2017-10-15T17:56:43.813Z,3.20
2017-10-15T17:59:10.203Z,2.83
2017-10-15T18:01:36.560Z,2.87
2017-10-15T18:04:02.898Z,5.60
2017-10-15T18:06:29.206Z,3.60
2017-10-15T18:08:55.526Z,3.67
2017-10-15T18:11:21.971Z,3.50
2017-10-15T18:13:48.295Z,3.00
2017-10-15T18:16:14.655Z,3.40
2017-10-15T18:18:40.975Z,4.30
2017-10-15T18:21:07.284Z,3.30
2017-10-15T18:23:35.370Z,3.70
2017-10-15T18:26:02.456Z,3.30
2017-10-15T18:28:30.538Z,2.83
2017-10-15T18:30:57.634Z,2.97
2017-10-15T18:33:23.978Z,4.00
2017-10-15T18:35:52.003Z,3.87
2017-10-15T18:38:18.347Z,4.20
2017-10-15T18:40:44.698Z,4.10
2017-10-15T18:43:11.052Z,3.50
2017-10-15T18:45:37.426Z,3.40
2017-10-15T18:48:03.742Z,3.53
2017-10-15T18:50:30.071Z,3.07
2017-10-15T18:52:56.390Z,3.53
2017-10-15T18:55:23.471Z,3.80
2017-10-15T18:57:49.805Z,4.00
2017-10-15T19:00:16.863Z,3.37
2017-10-15T19:02:43.204Z,3.67
2017-10-15T19:05:10.575Z,3.30
2017-10-15T19:07:36.911Z,3.53
2017-10-15T19:10:04.275Z,3.30
2017-10-15T19:12:31.424Z,3.53
2017-10-15T19:14:59.462Z,3.77
2017-10-15T19:17:25.781Z,3.83
2017-10-15T19:19:53.138Z,4.37
2017-10-15T19:22:20.402Z,3.97
2017-10-15T19:24:47.726Z,3.53
2017-10-15T19:27:14.038Z,3.43
2017-10-15T19:29:41.343Z,3.80
2017-10-15T19:32:07.711Z,3.60
2017-10-15T19:34:34.770Z,4.23
2017-10-15T19:37:01.123Z,4.37
2017-10-15T19:39:27.473Z,4.40
2017-10-15T19:41:53.806Z,4.30
2017-10-15T19:44:20.135Z,4.10
2017-10-15T19:46:47.352Z,4.00
2017-10-15T19:49:13.674Z,3.90
2017-10-15T19:51:39.986Z,3.60
2017-10-15T19:54:07.073Z,3.60
2017-10-15T19:56:33.411Z,4.10
2017-10-15T19:58:59.735Z,3.43
2017-10-15T20:01:26.084Z,3.17
2017-10-15T20:03:52.430Z,3.10
2017-10-15T20:06:18.758Z,3.67
2017-10-15T20:08:47.088Z,3.90
2017-10-15T20:11:13.442Z,3.53
2017-10-15T20:13:39.759Z,3.67
2017-10-15T20:16:06.099Z,3.50
2017-10-15T20:18:32.430Z,3.60
2017-10-15T20:20:58.786Z,3.37
2017-10-15T20:23:25.150Z,3.33
2017-10-15T20:25:52.229Z,4.00
2017-10-15T20:28:18.538Z,3.47
2017-10-15T20:30:44.847Z,3.73
2017-10-15T20:33:11.919Z,4.13
2017-10-15T20:35:38.238Z,3.67
2017-10-15T20:38:04.599Z,3.50
2017-10-15T20:40:30.939Z,3.00
2017-10-15T20:42:57.242Z,3.33
2017-10-15T20:45:23.559Z,2.80
2017-10-15T20:47:49.894Z,2.83
2017-10-15T20:50:17.231Z,3.17
2017-10-15T20:52:44.288Z,3.00
2017-10-15T20:55:11.338Z,3.37
2017-10-15T20:57:38.377Z,3.90
2017-10-15T21:00:06.466Z,2.90
2017-10-15T21:02:33.854Z,3.20
2017-10-15T21:05:00.204Z,2.80
2017-10-15T21:07:26.514Z,3.13
2017-10-15T21:09:52.843Z,3.23
2017-10-15T21:12:19.203Z,3.70
2017-10-15T21:14:45.519Z,2.60
2017-10-15T21:17:12.836Z,3.63
2017-10-15T21:19:39.150Z,2.60
2017-10-15T21:22:06.447Z,3.47
2017-10-15T21:24:32.783Z,3.60
2017-10-15T21:26:59.091Z,3.70
2017-10-15T21:29:25.422Z,3.30
2017-10-15T21:31:51.766Z,2.90
2017-10-15T21:34:18.086Z,3.27
2017-10-15T21:36:44.414Z,2.70
2017-10-15T21:39:10.738Z,2.67
2017-10-15T21:41:37.042Z,3.10
2017-10-15T21:44:03.371Z,3.13
2017-10-15T21:46:29.697Z,3.00
2017-10-15T21:48:56.037Z,3.13
2017-10-15T21:51:22.359Z,2.53
2017-10-15T21:53:48.686Z,2.73
2017-10-15T21:56:15.022Z,3.23
2017-10-15T21:58:41.328Z,3.53
2017-10-15T22:01:08.392Z,2.53
2017-10-15T22:03:34.702Z,2.80
2017-10-15T22:06:01.022Z,3.17
2017-10-15T22:08:27.355Z,3.07
2017-10-15T22:10:54.433Z,2.50
2017-10-15T22:13:20.756Z,2.83
2017-10-15T22:15:47.819Z,2.87
2017-10-15T22:18:20.175Z,2.90
2017-10-15T22:20:53.379Z,3.60
2017-10-15T22:23:19.683Z,3.93
2017-10-15T22:25:46.755Z,3.60
2017-10-15T22:28:13.092Z,3.30
2017-10-15T22:30:39.410Z,3.50
2017-10-15T22:33:05.719Z,3.33
2017-10-15T22:35:33.794Z,2.70
2017-10-15T22:38:00.862Z,2.50
2017-10-15T22:40:27.175Z,2.80
2017-10-15T22:42:54.223Z,3.00
2017-10-15T22:45:21.279Z,3.30
2017-10-15T22:47:48.327Z,2.87
2017-10-15T22:50:14.639Z,2.53
2017-10-15T22:52:41.707Z,2.80
2017-10-15T22:55:08.063Z,2.10
2017-10-15T22:57:34.410Z,2.17
2017-10-15T23:00:00.734Z,2.20
2017-10-15T23:02:27.067Z,2.60
2017-10-15T23:04:54.099Z,2.43
2017-10-15T23:07:20.419Z,2.40
2017-10-15T23:09:46.731Z,2.00
2017-10-15T23:12:13.065Z,2.80
2017-10-15T23:14:39.419Z,2.60
2017-10-15T23:17:05.731Z,3.13
2017-10-15T23:19:33.043Z,2.37
2017-10-15T23:21:59.362Z,2.50
2017-10-15T23:24:25.678Z,2.40
2017-10-15T23:26:51.994Z,3.33
2017-10-15T23:29:18.320Z,3.03
2017-10-15T23:31:44.659Z,4.53
2017-10-15T23:34:10.980Z,3.50
2017-10-15T23:36:37.330Z,3.03
2017-10-15T23:39:03.724Z,3.50
2017-10-15T23:41:30.046Z,3.20
2017-10-15T23:43:56.366Z,3.53
2017-10-15T23:46:23.422Z,2.90
2017-10-15T23:48:50.478Z,3.30
2017-10-15T23:51:16.784Z,3.20
2017-10-15T23:53:43.850Z,3.20
2017-10-15T23:56:10.181Z,2.90
2017-10-15T23:58:36.555Z,3.30
